Time;durP1;ratioP1;P1;durP2;ratioP2;P2;SDS_P1;SDS_P2;PMS_P1;PMS_P2;Temp;Humidity;BMP_temperature;BMP_pressure;BME280_temperature;BME280_humidity;BME280_pressure;Samples;Min_cycle;Max_cycle;Signal;HPM_P1;HPM_P2
2023/09/21 00:01:19;;;;;;;2.60;2.00;;;;;;;13.91;87.82;96535.95;111739;1244;22524;-77
2023/09/21 00:03:48;;;;;;;2.60;1.90;;;;;;;13.86;88.01;96539.96;111729;1229;22495;-77
2023/09/21 00:06:19;;;;;;;;;;;;;;;13.89;88.23;96534.49;111789;1244;22486;-77
2023/09/21 00:08:49;;;;;;;6.60;3.20;;;;;;;13.85;88.13;96533.75;111771;1244;22519;-77
2023/09/21 00:11:18;;;;;;;4.50;2.70;;;;;;;13.83;88.13;96535.14;111758;1244;25462;-77
2023/09/21 00:13:47;;;;;;;5.00;2.80;;;;;;;13.77;87.95;96532.97;111732;1244;22580;-77
2023/09/21 00:16:24;;;;;;;4.00;2.30;;;;;;;13.71;88.01;96532.68;111755;1244;22495;-77
2023/09/21 00:18:53;;;;;;;6.20;2.60;;;;;;;13.64;87.64;96529.56;111752;1244;22499;-77
2023/09/21 00:21:23;;;;;;;3.40;2.40;;;;;;;13.53;87.72;96527.73;111799;1244;25276;-77
2023/09/21 00:23:52;;;;;;;5.90;2.70;;;;;;;13.52;88.34;96526.80;111704;1244;22509;-77
2023/09/21 00:26:20;;;;;;;4.70;2.10;;;;;;;13.47;88.42;96525.33;111758;1244;22501;-78
2023/09/21 00:28:51;;;;;;;3.10;2.30;;;;;;;13.49;88.92;96521.20;111758;1244;22537;-77
2023/09/21 00:31:19;;;;;;;3.30;2.10;;;;;;;13.50;88.79;96520.43;111776;1244;22516;-77
2023/09/21 00:33:48;;;;;;;4.30;2.20;;;;;;;13.50;89.05;96526.45;111700;1244;22511;-77
2023/09/21 00:36:17;;;;;;;3.80;2.00;;;;;;;13.56;89.29;96521.33;111763;1244;25473;-77
2023/09/21 00:38:47;;;;;;;3.40;2.10;;;;;;;13.60;89.12;96519.04;111775;1244;22501;-78
2023/09/21 00:41:18;;;;;;;3.40;2.00;;;;;;;13.63;89.34;96516.30;111778;1244;22522;-77
2023/09/21 00:43:46;;;;;;;2.50;1.70;;;;;;;13.73;89.65;96511.63;111756;1239;22521;-77
2023/09/21 00:46:16;;;;;;;3.30;1.90;;;;;;;13.80;89.43;96509.40;111746;1244;22605;-77
2023/09/21 00:48:45;;;;;;;3.10;2.20;;;;;;;13.82;89.18;96509.89;111804;1244;22500;-77
2023/09/21 00:51:16;;;;;;;3.50;2.10;;;;;;;13.81;89.01;96506.23;111780;1244;25231;-77
2023/09/21 00:53:47;;;;;;;4.60;1.90;;;;;;;13.75;89.04;96508.00;111575;1244;22501;-77
2023/09/21 00:56:18;;;;;;;3.40;1.80;;;;;;;13.74;88.97;96505.80;111730;1244;22505;-77
2023/09/21 00:58:50;;;;;;;4.00;2.20;;;;;;;13.71;88.82;96502.56;111762;1244;22498;-77
2023/09/21 01:01:22;;;;;;;2.70;1.90;;;;;;;13.69;88.86;96503.42;111783;1244;22492;-77
2023/09/21 01:03:52;;;;;;;2.00;1.80;;;;;;;13.74;89.33;96501.11;111725;1244;22527;-77
2023/09/21 01:06:20;;;;;;;2.20;1.70;;;;;;;13.77;89.03;96498.30;111785;1244;22530;-77
2023/09/21 01:08:49;;;;;;;2.00;1.50;;;;;;;13.76;88.94;96500.37;111772;1244;22502;-77
2023/09/21 01:11:19;;;;;;;3.60;2.00;;;;;;;13.73;88.78;96498.38;111731;1244;23219;-77
2023/09/21 01:13:51;;;;;;;2.70;1.80;;;;;;;13.68;88.80;96495.82;111755;1244;22509;-77
2023/09/21 01:16:23;;;;;;;2.30;1.70;;;;;;;13.62;88.69;96494.70;111772;1244;22836;-77
2023/09/21 01:18:53;;;;;;;3.30;2.10;;;;;;;13.60;89.20;96494.20;111732;1244;22629;-77
2023/09/21 01:21:34;;;;;;;3.60;1.70;;;;;;;13.58;89.30;96493.20;111762;1244;22504;-77
2023/09/21 01:24:04;;;;;;;6.80;2.10;;;;;;;13.63;89.62;96491.02;111748;1244;26039;-77
2023/09/21 01:26:33;;;;;;;3.10;1.80;;;;;;;13.66;89.56;96491.74;111696;1244;22508;-78
2023/09/21 01:29:03;;;;;;;2.60;1.90;;;;;;;13.73;89.70;96484.55;111763;1244;25327;-77
2023/09/21 01:31:34;;;;;;;2.20;1.60;;;;;;;13.79;89.46;96480.58;111817;1244;22502;-77
2023/09/21 01:34:03;;;;;;;2.40;1.90;;;;;;;13.83;89.41;96484.98;111754;1244;22542;-77
2023/09/21 01:36:32;;;;;;;3.10;1.40;;;;;;;13.82;89.27;96481.06;111813;1244;22523;-77
2023/09/21 01:39:00;;;;;;;2.30;1.60;;;;;;;13.83;89.26;96483.75;111705;1244;22471;-77
2023/09/21 01:41:29;;;;;;;1.90;1.40;;;;;;;13.83;89.18;96479.05;111607;1244;22519;-77
2023/09/21 01:44:00;;;;;;;2.90;2.00;;;;;;;13.79;88.85;96476.70;111589;1244;24931;-77
2023/09/21 01:46:28;;;;;;;4.40;1.70;;;;;;;13.75;88.99;96477.79;111584;1243;24138;-78
2023/09/21 01:48:56;;;;;;;3.80;1.70;;;;;;;13.76;89.13;96474.41;111562;1244;22495;-77
2023/09/21 01:51:25;;;;;;;2.40;1.70;;;;;;;13.79;89.17;96474.61;111613;1244;23880;-77
2023/09/21 01:53:53;;;;;;;2.40;1.70;;;;;;;13.81;89.26;96474.16;111589;1244;22517;-77
2023/09/21 01:56:22;;;;;;;2.50;1.70;;;;;;;13.82;89.05;96474.94;111567;1244;22502;-77
2023/09/21 01:58:50;;;;;;;2.40;1.80;;;;;;;13.79;89.23;96472.79;111560;1244;24185;-77
2023/09/21 02:01:19;;;;;;;2.30;1.50;;;;;;;13.81;89.28;96472.99;111607;1244;24218;-77
2023/09/21 02:03:51;;;;;;;2.50;1.70;;;;;;;13.84;89.23;96468.38;111575;1244;24269;-77
2023/09/21 02:06:20;;;;;;;2.60;1.80;;;;;;;13.86;89.30;96470.23;111613;1244;23683;-77
2023/09/21 02:08:49;;;;;;;3.50;1.60;;;;;;;13.89;89.28;96463.42;111592;1244;22554;-77
2023/09/21 02:11:18;;;;;;;3.40;1.50;;;;;;;13.87;89.09;96459.45;111617;1244;25484;-77
2023/09/21 02:13:46;;;;;;;2.40;1.90;;;;;;;13.77;88.92;96459.00;111560;1244;23321;-77
2023/09/21 02:16:15;;;;;;;2.30;1.50;;;;;;;13.70;88.96;96455.54;111576;1244;22543;-77
2023/09/21 02:18:44;;;;;;;2.10;1.90;;;;;;;13.68;89.19;96452.02;111604;1244;22489;-77
2023/09/21 02:21:14;;;;;;;2.40;1.50;;;;;;;13.66;88.95;96450.55;111602;1244;23522;-77
2023/09/21 02:23:42;;;;;;;4.00;1.60;;;;;;;13.61;89.08;96446.46;111553;1244;22532;-77
2023/09/21 02:26:11;;;;;;;2.30;1.30;;;;;;;13.59;89.05;96447.83;111560;1244;23793;-77
2023/09/21 02:28:39;;;;;;;2.10;1.50;;;;;;;13.58;89.01;96443.71;111616;1244;22452;-78
2023/09/21 02:31:11;;;;;;;3.30;1.90;;;;;;;13.52;88.86;96439.86;111579;1244;23965;-77
2023/09/21 02:33:42;;;;;;;4.70;1.50;;;;;;;13.47;88.92;96442.83;111624;1244;22537;-77
2023/09/21 02:36:19;;;;;;;3.40;1.60;;;;;;;13.43;88.98;96441.48;111619;1243;22562;-78
2023/09/21 02:38:49;;;;;;;1.40;1.30;;;;;;;13.41;89.14;96442.88;111607;1244;22494;-77
2023/09/21 02:41:18;;;;;;;1.50;1.40;;;;;;;13.42;89.24;96440.45;111604;1244;22580;-78
2023/09/21 02:43:46;;;;;;;4.00;2.00;;;;;;;13.42;89.08;96440.89;111589;1244;22473;-78
2023/09/21 02:46:15;;;;;;;4.80;1.60;;;;;;;13.41;89.19;96436.37;111623;1244;25164;-77
2023/09/21 02:48:44;;;;;;;4.00;1.40;;;;;;;13.40;89.36;96437.73;111623;1244;22510;-78
2023/09/21 02:51:13;;;;;;;3.10;1.40;;;;;;;13.38;89.43;96437.89;111593;1244;24223;-78
2023/09/21 02:53:43;;;;;;;3.60;1.60;;;;;;;13.39;89.51;96436.20;111570;1244;22517;-77
2023/09/21 02:56:12;;;;;;;2.30;1.60;;;;;;;13.37;89.35;96435.70;111583;1244;26900;-78
2023/09/21 02:58:41;;;;;;;3.30;1.60;;;;;;;13.28;89.06;96436.43;111631;1234;22545;-78
2023/09/21 03:01:10;;;;;;;3.50;1.80;;;;;;;13.18;89.11;96428.48;111577;1244;22516;-78
2023/09/21 03:03:40;;;;;;;2.10;1.60;;;;;;;13.16;89.56;96430.02;111563;1244;22512;-78
2023/09/21 03:06:09;;;;;;;2.10;1.50;;;;;;;13.15;89.70;96422.31;111594;1244;22677;-77
2023/09/21 03:08:38;;;;;;;2.70;1.70;;;;;;;13.13;89.59;96423.73;111584;1244;22489;-78
2023/09/21 03:11:11;;;;;;;1.80;1.30;;;;;;;13.12;90.05;96420.52;111627;1244;25081;-78
2023/09/21 03:13:40;;;;;;;1.60;1.50;;;;;;;13.22;90.33;96422.62;111537;1244;28135;-77
2023/09/21 03:16:16;;;;;;;;;;;;;;;13.45;90.98;96423.49;111611;1244;25201;-77
2023/09/21 03:18:47;;;;;;;3.60;1.50;;;;;;;13.61;90.30;96421.17;111601;1244;26574;-77
2023/09/21 03:21:16;;;;;;;1.90;1.50;;;;;;;13.67;90.21;96419.75;111653;1244;25434;-78
2023/09/21 03:23:46;;;;;;;3.70;1.50;;;;;;;13.74;90.02;96417.57;111576;1244;24191;-77
2023/09/21 03:26:15;;;;;;;2.90;1.40;;;;;;;13.79;89.92;96417.71;111653;1244;22494;-78
2023/09/21 03:28:47;;;;;;;1.50;1.40;;;;;;;13.83;89.76;96416.83;111609;1244;25978;-77
2023/09/21 03:31:18;;;;;;;3.60;1.50;;;;;;;13.83;89.49;96420.22;111606;1244;22502;-78
2023/09/21 03:33:47;;;;;;;2.20;1.50;;;;;;;13.84;89.28;96420.54;111577;1244;22641;-78
2023/09/21 03:36:16;;;;;;;3.10;1.40;;;;;;;13.85;89.15;96418.85;111651;1244;22953;-78
2023/09/21 03:38:48;;;;;;;2.30;1.30;;;;;;;13.88;89.07;96417.16;111616;1244;26556;-77
2023/09/21 03:41:19;;;;;;;2.00;1.40;;;;;;;13.90;88.89;96415.14;111609;1244;22511;-77
2023/09/21 03:43:49;;;;;;;4.50;1.70;;;;;;;13.87;88.58;96412.43;111612;1244;24990;-77
2023/09/21 03:46:18;;;;;;;2.00;1.00;;;;;;;13.81;88.52;96415.31;111639;1236;22748;-77
2023/09/21 03:48:49;;;;;;;3.40;1.60;;;;;;;13.79;88.46;96412.96;111607;1244;22510;-77
2023/09/21 03:51:18;;;;;;;2.70;1.50;;;;;;;13.71;88.30;96415.33;111638;1244;22589;-78
2023/09/21 03:53:46;;;;;;;2.10;1.60;;;;;;;13.61;88.09;96410.94;111605;1244;23043;-77
2023/09/21 03:56:15;;;;;;;4.30;1.50;;;;;;;13.46;88.09;96406.96;111591;1244;22511;-78
2023/09/21 03:58:43;;;;;;;1.40;1.20;;;;;;;13.39;88.58;96407.73;111610;1244;24274;-77
2023/09/21 04:01:13;;;;;;;2.80;1.50;;;;;;;13.41;89.04;96405.45;111625;1244;23000;-78
2023/09/21 04:03:43;;;;;;;2.40;1.60;;;;;;;13.46;89.24;96405.04;111612;1244;22491;-77
2023/09/21 04:06:10;;;;;;;;;;;;;;;13.48;89.11;96402.39;111615;1244;22490;-78
2023/09/21 04:08:38;;;;;;;3.50;1.50;;;;;;;13.48;89.16;96402.83;111635;1244;22482;-78
2023/09/21 04:11:07;;;;;;;3.10;1.60;;;;;;;13.60;89.62;96400.84;111636;1244;25312;-78
2023/09/21 04:13:36;;;;;;;1.60;1.50;;;;;;;13.73;89.45;96398.41;111584;1244;22602;-77
2023/09/21 04:16:08;;;;;;;3.90;1.70;;;;;;;13.77;89.27;96398.46;111656;1244;22508;-78
2023/09/21 04:18:36;;;;;;;1.80;1.30;;;;;;;13.78;89.13;96394.73;111615;1244;22512;-77
2023/09/21 04:21:11;;;;;;;2.10;1.60;;;;;;;13.79;89.13;96390.36;111634;1244;22501;-78
2023/09/21 04:23:39;;;;;;;1.80;1.30;;;;;;;13.81;89.14;96389.80;111634;1244;24859;-78
2023/09/21 04:26:10;;;;;;;1.90;1.10;;;;;;;13.84;89.02;96384.11;111626;1244;25660;-78
2023/09/21 04:28:42;;;;;;;1.80;1.30;;;;;;;13.88;88.90;96387.02;111604;1244;22522;-78
2023/09/21 04:31:10;;;;;;;1.30;1.20;;;;;;;13.83;88.69;96383.66;111626;1244;24220;-78
2023/09/21 04:33:39;;;;;;;1.80;1.30;;;;;;;13.78;88.62;96381.80;111594;1244;25306;-78
2023/09/21 04:36:08;;;;;;;2.30;1.40;;;;;;;13.76;88.76;96379.31;111623;1244;22495;-77
2023/09/21 04:38:38;;;;;;;2.60;1.30;;;;;;;13.89;89.25;96379.91;111619;1244;22531;-78
2023/09/21 04:41:15;;;;;;;2.40;1.30;;;;;;;14.11;89.32;96385.03;111658;1244;24169;-78
2023/09/21 04:43:44;;;;;;;3.10;1.40;;;;;;;14.38;89.28;96387.11;111592;1244;22532;-77
2023/09/21 04:46:13;;;;;;;2.50;1.30;;;;;;;14.62;88.79;96381.21;111618;1244;23692;-78
2023/09/21 04:48:41;;;;;;;;;;;;;;;14.81;88.37;96383.34;111627;1244;22472;-78
2023/09/21 04:51:14;;;;;;;2.30;1.30;;;;;;;15.04;88.05;96386.31;111595;1244;22601;-78
2023/09/21 04:53:42;;;;;;;2.40;1.30;;;;;;;15.29;87.81;96381.94;111592;1244;44597;-78
2023/09/21 04:56:11;;;;;;;4.30;1.50;;;;;;;15.58;87.56;96379.92;111655;1244;22496;-77
2023/09/21 04:58:42;;;;;;;3.10;1.20;;;;;;;15.88;86.78;96377.66;111624;1244;22518;-77
2023/09/21 05:01:11;;;;;;;4.30;1.50;;;;;;;16.13;86.37;96379.08;111618;1244;22517;-77
2023/09/21 05:03:42;;;;;;;4.70;1.70;;;;;;;16.41;85.74;96381.98;111603;1244;22498;-77
2023/09/21 05:06:10;;;;;;;1.70;1.40;;;;;;;16.60;84.76;96381.23;111625;1244;23738;-77
2023/09/21 05:08:39;;;;;;;3.10;1.40;;;;;;;16.73;84.11;96378.33;111568;1244;25276;-77
2023/09/21 05:11:10;;;;;;;6.10;1.50;;;;;;;16.82;83.32;96377.83;111581;1238;22514;-77
2023/09/21 05:13:40;;;;;;;3.10;1.70;;;;;;;16.92;83.04;96376.79;111566;1244;22586;-77
2023/09/21 05:16:08;;;;;;;;;;;;;;;17.09;83.00;96377.18;111616;1244;22479;-77
2023/09/21 05:18:37;;;;;;;2.70;1.40;;;;;;;17.40;82.67;96369.29;111637;1244;22499;-76
2023/09/21 05:21:06;;;;;;;2.70;1.10;;;;;;;17.62;81.59;96363.19;111649;1244;22492;-77
2023/09/21 05:23:36;;;;;;;2.80;1.50;;;;;;;17.70;80.81;96360.98;111617;1244;22496;-76
2023/09/21 05:26:06;;;;;;;1.80;1.60;;;;;;;17.85;80.61;96363.58;111596;1244;22530;-77
2023/09/21 05:28:36;;;;;;;2.50;1.10;;;;;;;18.10;80.66;96362.14;111637;1244;23919;-77
2023/09/21 05:31:10;;;;;;;2.80;1.40;;;;;;;18.47;80.11;96360.45;111611;1244;24269;-77
2023/09/21 05:33:38;;;;;;;3.20;1.60;;;;;;;18.75;78.99;96361.65;111595;1244;22495;-76
2023/09/21 05:36:09;;;;;;;3.90;1.60;;;;;;;19.05;79.15;96356.73;111611;1244;22480;-77
2023/09/21 05:38:39;;;;;;;1.30;1.20;;;;;;;19.34;78.07;96360.19;111618;1244;23904;-76
2023/09/21 05:41:10;;;;;;;3.50;1.50;;;;;;;19.67;77.94;96358.30;111648;1244;22503;-77
2023/09/21 05:43:40;;;;;;;3.10;1.60;;;;;;;20.07;77.23;96356.75;111640;1244;24850;-76
2023/09/21 05:46:11;;;;;;;4.20;1.40;;;;;;;20.32;76.29;96354.54;111626;1244;23837;-76
2023/09/21 05:48:40;;;;;;;2.50;1.40;;;;;;;20.64;75.84;96353.96;111671;1244;22459;-77
2023/09/21 05:51:11;;;;;;;2.50;1.30;;;;;;;20.94;74.94;96356.34;111663;1244;22586;-77
2023/09/21 05:53:40;;;;;;;3.60;1.40;;;;;;;21.05;73.53;96355.65;111595;1244;26130;-80
2023/09/21 05:56:09;;;;;;;3.10;1.30;;;;;;;21.06;72.48;96358.23;111612;1244;22505;-79
2023/09/21 05:58:37;;;;;;;;;;;;;;;20.99;72.28;96356.15;111663;1244;23690;-80
2023/09/21 06:01:06;;;;;;;3.00;1.30;;;;;;;21.02;71.63;96363.61;111633;1244;22872;-79
2023/09/21 06:03:37;;;;;;;2.00;1.30;;;;;;;21.06;71.62;96365.23;111370;1238;22481;-79
2023/09/21 06:06:08;;;;;;;3.40;1.20;;;;;;;21.40;72.09;96364.29;111596;1244;22510;-79
2023/09/21 06:08:39;;;;;;;6.50;1.70;;;;;;;21.69;71.19;96371.83;111455;1244;22497;-79
2023/09/21 06:11:08;;;;;;;2.90;1.50;;;;;;;21.77;70.26;96375.05;111632;1244;22499;-80
2023/09/21 06:13:37;;;;;;;3.60;1.30;;;;;;;21.65;69.24;96371.29;111576;1244;26655;-79
2023/09/21 06:16:08;;;;;;;1.50;1.40;;;;;;;21.46;69.16;96365.48;111658;1244;22549;-79
2023/09/21 06:18:36;;;;;;;3.50;1.60;;;;;;;21.43;69.07;96363.66;111636;1244;23817;-79
2023/09/21 06:21:06;;;;;;;1.70;1.20;;;;;;;21.54;68.95;96363.29;111630;1244;22512;-79
2023/09/21 06:23:35;;;;;;;1.90;1.10;;;;;;;21.68;69.55;96366.71;111673;1244;25193;-79
2023/09/21 06:26:03;;;;;;;2.80;1.50;;;;;;;22.05;69.65;96365.27;111640;1244;22498;-79
2023/09/21 06:28:32;;;;;;;3.00;1.40;;;;;;;22.33;69.37;96364.55;111628;1244;22726;-78
2023/09/21 06:31:05;;;;;;;7.00;1.70;;;;;;;22.57;68.80;96358.23;111663;1244;22498;-78
2023/09/21 06:33:35;;;;;;;3.30;1.60;;;;;;;22.58;67.49;96362.95;111605;1244;22509;-78
2023/09/21 06:36:14;;;;;;;1.60;1.30;;;;;;;22.47;66.74;96364.61;111688;1244;22550;-78
2023/09/21 06:38:44;;;;;;;3.90;1.30;;;;;;;22.26;66.11;96364.27;111645;1244;23767;-78
2023/09/21 06:41:12;;;;;;;6.10;1.60;;;;;;;22.16;66.30;96362.70;111620;1244;22503;-77
2023/09/21 06:43:44;;;;;;;2.10;1.30;;;;;;;22.24;66.85;96358.67;111618;1244;22518;-78
2023/09/21 06:46:12;;;;;;;3.30;1.20;;;;;;;22.48;66.44;96356.61;111615;1244;24179;-78
2023/09/21 06:48:41;;;;;;;1.50;1.00;;;;;;;22.45;65.79;96355.26;111634;1244;22575;-78
2023/09/21 06:51:10;;;;;;;2.10;1.00;;;;;;;22.61;66.48;96351.58;111601;1244;22502;-78
2023/09/21 06:53:43;;;;;;;1.50;1.10;;;;;;;22.85;66.38;96357.52;111611;1244;25357;-78
2023/09/21 06:56:12;;;;;;;2.70;1.20;;;;;;;23.15;66.26;96356.26;111619;1244;25500;-78
2023/09/21 06:58:42;;;;;;;1.70;1.40;;;;;;;23.27;65.04;96351.25;111653;1244;22503;-78
2023/09/21 07:01:09;;;;;;;;;;;;;;;23.47;65.40;96352.52;111700;1244;23799;-78
2023/09/21 07:03:38;;;;;;;2.50;1.50;;;;;;;23.70;64.63;96345.46;111591;1244;24172;-78
2023/09/21 07:06:06;;;;;;;1.30;1.20;;;;;;;23.82;64.60;96348.23;111611;1244;22605;-78
2023/09/21 07:08:38;;;;;;;3.10;1.20;;;;;;;23.90;64.24;96344.91;111705;1244;22543;-77
2023/09/21 07:11:09;;;;;;;2.60;1.40;;;;;;;24.02;63.79;96341.55;111624;1244;24339;-77
2023/09/21 07:13:37;;;;;;;2.60;1.10;;;;;;;24.16;63.40;96340.14;111563;1244;22516;-78
2023/09/21 07:16:07;;;;;;;3.90;1.10;;;;;;;24.20;62.97;96343.27;111620;1244;23841;-77
2023/09/21 07:18:39;;;;;;;2.10;0.90;;;;;;;24.21;62.33;96343.98;111702;1244;22497;-78
2023/09/21 07:21:08;;;;;;;4.60;1.80;;;;;;;24.19;61.82;96344.58;111402;1244;22990;-78
2023/09/21 07:23:36;;;;;;;1.10;0.90;;;;;;;24.20;62.26;96343.13;111412;1244;24313;-77
2023/09/21 07:26:05;;;;;;;2.80;1.40;;;;;;;24.27;63.25;96334.06;111452;1240;22547;-76
2023/09/21 07:28:34;;;;;;;4.40;1.20;;;;;;;24.40;63.40;96335.83;111467;1244;23213;-76
2023/09/21 07:31:02;;;;;;;;;;;;;;;24.37;62.89;96334.26;112214;1244;22722;-76
2023/09/21 07:33:34;;;;;;;1.90;1.30;;;;;;;24.38;62.90;96329.84;111499;1244;24980;-76
2023/09/21 07:36:03;;;;;;;1.80;1.00;;;;;;;24.42;62.91;96328.80;111592;1244;24171;-76
2023/09/21 07:38:31;;;;;;;3.00;1.30;;;;;;;24.52;62.55;96328.88;111428;1244;226273;-76
2023/09/21 07:41:00;;;;;;;4.90;1.50;;;;;;;24.65;62.33;96325.17;111609;1244;22620;-77
2023/09/21 07:43:31;;;;;;;3.60;1.10;;;;;;;24.82;62.37;96322.89;111567;1244;22967;-76
2023/09/21 07:46:00;;;;;;;3.20;1.10;;;;;;;25.05;62.02;96317.88;111646;1244;22496;-76
2023/09/21 07:48:29;;;;;;;3.80;1.50;;;;;;;25.13;61.05;96320.33;111611;1243;25212;-76
2023/09/21 07:50:58;;;;;;;5.00;1.20;;;;;;;25.22;60.96;96316.49;111686;1244;22496;-76
2023/09/21 07:53:27;;;;;;;2.00;1.40;;;;;;;25.26;60.51;96314.04;111609;1244;22684;-76
2023/09/21 07:56:05;;;;;;;3.10;1.00;;;;;;;25.24;60.50;96313.33;111609;1230;22518;-76
2023/09/21 07:58:34;;;;;;;2.50;1.20;;;;;;;25.30;60.49;96314.90;111595;1244;22486;-76
2023/09/21 08:01:02;;;;;;;4.20;1.60;;;;;;;25.29;60.39;96317.14;111635;1244;22663;-76
2023/09/21 08:03:34;;;;;;;4.70;2.20;;;;;;;25.15;60.14;96318.01;111596;1244;22498;-76
2023/09/21 08:06:02;;;;;;;6.10;1.60;;;;;;;25.08;60.86;96315.11;111595;1244;24746;-77
2023/09/21 08:08:32;;;;;;;5.20;2.00;;;;;;;25.25;61.52;96312.32;111780;1244;22549;-76
2023/09/21 08:11:00;;;;;;;2.60;1.80;;;;;;;25.30;61.26;96307.84;111572;1244;22534;-77
2023/09/21 08:13:30;;;;;;;3.20;1.80;;;;;;;25.37;61.79;96304.78;111586;1244;22465;-77
2023/09/21 08:16:02;;;;;;;3.50;1.90;;;;;;;25.49;61.87;96303.04;111623;1244;22499;-78
2023/09/21 08:18:30;;;;;;;4.00;1.90;;;;;;;25.62;62.26;96307.50;111592;1244;22692;-77
2023/09/21 08:20:59;;;;;;;4.70;2.20;;;;;;;25.75;62.09;96306.48;111597;1244;22521;-76
2023/09/21 08:23:29;;;;;;;5.60;2.00;;;;;;;25.77;62.04;96303.86;111589;1244;25212;-75
2023/09/21 08:25:58;;;;;;;2.60;1.80;;;;;;;25.75;61.91;96301.75;111615;1244;22563;-76
2023/09/21 08:28:29;;;;;;;4.50;1.90;;;;;;;25.83;61.90;96303.17;111637;1244;22499;-75
2023/09/21 08:30:57;;;;;;;2.10;1.80;;;;;;;25.81;61.49;96302.70;111604;1244;25229;-75
2023/09/21 08:33:25;;;;;;;3.00;1.80;;;;;;;25.82;61.62;96296.64;111614;1244;22960;-75
2023/09/21 08:35:54;;;;;;;3.90;1.70;;;;;;;25.82;61.88;96290.67;111610;1244;22479;-75
2023/09/21 08:38:23;;;;;;;2.50;1.70;;;;;;;25.86;61.44;96284.16;111591;1244;22496;-75
2023/09/21 08:40:53;;;;;;;3.20;1.80;;;;;;;25.83;61.80;96278.72;111590;1244;23924;-75
2023/09/21 08:43:24;;;;;;;5.00;2.00;;;;;;;25.94;62.00;96275.34;111577;1244;22491;-75
2023/09/21 08:45:53;;;;;;;3.00;1.70;;;;;;;26.00;62.12;96278.36;111607;1244;22502;-75
2023/09/21 08:48:22;;;;;;;3.90;1.60;;;;;;;25.98;61.73;96276.65;111581;1244;22996;-75
2023/09/21 08:50:52;;;;;;;3.40;1.50;;;;;;;25.94;61.74;96275.48;111600;1244;24019;-75
2023/09/21 08:53:21;;;;;;;4.10;1.60;;;;;;;25.94;62.12;96273.39;111570;1244;22666;-75
2023/09/21 08:55:52;;;;;;;4.40;1.60;;;;;;;26.01;61.73;96270.68;111586;1244;22558;-75
2023/09/21 08:58:23;;;;;;;2.60;1.40;;;;;;;26.15;61.89;96271.23;111445;1243;23957;-75
2023/09/21 09:00:55;;;;;;;3.50;1.60;;;;;;;26.23;61.60;96271.48;111661;1232;23204;-75
2023/09/21 09:03:25;;;;;;;3.40;1.70;;;;;;;26.27;61.42;96270.45;111635;1231;22531;-75
2023/09/21 09:05:55;;;;;;;3.40;1.40;;;;;;;26.16;60.96;96267.89;111635;1244;22605;-75
2023/09/21 09:08:24;;;;;;;3.00;1.60;;;;;;;26.09;61.23;96266.73;111663;1244;22505;-75
2023/09/21 09:10:53;;;;;;;;;;;;;;;26.13;61.82;96264.33;111616;1244;22542;-75
2023/09/21 09:13:29;;;;;;;2.00;1.40;;;;;;;26.14;61.25;96265.33;111531;1244;22668;-75
2023/09/21 09:15:59;;;;;;;5.00;1.40;;;;;;;26.06;60.18;96266.58;111670;1244;22766;-77
2023/09/21 09:18:28;;;;;;;5.30;1.60;;;;;;;26.00;60.07;96266.55;111606;1244;22510;-77
2023/09/21 09:20:59;;;;;;;4.30;1.30;;;;;;;25.99;59.21;96268.34;111610;1244;22499;-77
2023/09/21 09:23:27;;;;;;;4.60;1.50;;;;;;;25.88;59.32;96264.83;111624;1244;22492;-77
2023/09/21 09:25:56;;;;;;;3.10;1.30;;;;;;;25.83;58.52;96262.19;111629;1244;22524;-77
2023/09/21 09:28:32;;;;;;;2.60;1.20;;;;;;;25.66;57.82;96261.06;111629;1244;22520;-78
2023/09/21 09:31:02;;;;;;;2.90;1.50;;;;;;;25.39;57.28;96264.31;111577;1244;22498;-78
2023/09/21 09:33:37;;;;;;;3.70;1.40;;;;;;;25.31;58.18;96263.35;111587;1244;25276;-77
2023/09/21 09:36:07;;;;;;;2.70;1.50;;;;;;;25.33;57.95;96262.11;111606;1244;23783;-77
2023/09/21 09:38:35;;;;;;;1.70;1.20;;;;;;;25.41;58.57;96259.98;111642;1244;22531;-77
2023/09/21 09:41:04;;;;;;;5.50;1.50;;;;;;;25.44;57.78;96265.16;111592;1244;26470;-77
2023/09/21 09:43:36;;;;;;;3.30;1.30;;;;;;;25.43;57.49;96263.77;111581;1244;22814;-77
2023/09/21 09:46:08;;;;;;;2.50;1.00;;;;;;;25.40;56.83;96260.05;111588;1244;25506;-77
2023/09/21 09:48:39;;;;;;;4.80;1.20;;;;;;;25.23;55.63;96261.21;111639;1244;22506;-77
2023/09/21 09:51:11;;;;;;;4.80;1.10;;;;;;;24.93;55.20;96250.61;111593;1244;22567;-77
2023/09/21 09:53:41;;;;;;;2.40;1.10;;;;;;;24.89;55.53;96255.21;111590;1244;22496;-77
2023/09/21 09:56:10;;;;;;;1.90;0.80;;;;;;;24.78;55.04;96253.77;111602;1244;22510;-77
2023/09/21 09:58:41;;;;;;;3.40;1.10;;;;;;;24.71;55.22;96249.62;111600;1244;22507;-77
2023/09/21 10:01:12;;;;;;;3.50;1.10;;;;;;;24.61;55.07;96246.15;111564;1244;23230;-76
2023/09/21 10:03:43;;;;;;;3.30;1.20;;;;;;;24.54;55.37;96238.76;111437;1244;22602;-78
2023/09/21 10:06:14;;;;;;;2.50;1.30;;;;;;;24.49;55.55;96242.27;111514;1244;22617;-77
2023/09/21 10:08:46;;;;;;;2.80;1.20;;;;;;;24.47;55.45;96238.16;111584;1244;23820;-77
2023/09/21 10:11:24;;;;;;;2.00;1.10;;;;;;;24.44;55.78;96229.01;111591;1244;25219;-78
2023/09/21 10:13:54;;;;;;;3.50;1.50;;;;;;;24.41;55.41;96228.61;111572;1244;22502;-77
2023/09/21 10:16:24;;;;;;;3.60;1.60;;;;;;;24.37;55.71;96230.52;111565;1244;22557;-77
2023/09/21 10:18:57;;;;;;;5.20;1.60;;;;;;;24.38;55.99;96226.66;111500;1244;24182;-77
2023/09/21 10:21:31;;;;;;;3.50;1.60;;;;;;;24.43;56.45;96224.66;111606;1244;22496;-77
2023/09/21 10:24:06;;;;;;;1.70;1.10;;;;;;;24.50;56.71;96224.56;111578;1244;22503;-77
2023/09/21 10:26:38;;;;;;;1.50;0.90;;;;;;;24.58;56.81;96222.83;111643;1244;24160;-77
2023/09/21 10:29:08;;;;;;;2.60;1.80;;;;;;;24.59;56.37;96224.38;111617;1244;22495;-77
2023/09/21 10:31:39;;;;;;;2.40;1.20;;;;;;;24.50;56.23;96216.04;111609;1244;23820;-78
2023/09/21 10:34:18;;;;;;;2.90;1.30;;;;;;;24.43;56.36;96215.84;111590;1244;22551;-78
2023/09/21 10:36:50;;;;;;;4.40;2.30;;;;;;;24.38;56.41;96211.02;111606;1244;23841;-77
2023/09/21 10:39:28;;;;;;;1.60;1.30;;;;;;;24.37;56.70;96204.36;111607;1244;22510;-77
2023/09/21 10:42:18;;;;;;;3.60;1.50;;;;;;;24.48;57.53;96203.33;111567;1244;22521;-77
2023/09/21 10:45:03;;;;;;;4.20;1.10;;;;;;;24.53;56.78;96206.00;111573;1244;23655;-77
2023/09/21 10:47:49;;;;;;;2.80;1.20;;;;;;;24.43;56.55;96202.91;111620;1244;22504;-77
2023/09/21 10:50:20;;;;;;;4.60;1.50;;;;;;;24.41;56.34;96196.16;111567;1244;22583;-78
2023/09/21 10:52:51;;;;;;;3.10;1.30;;;;;;;24.36;56.38;96193.98;111577;1244;25414;-78
2023/09/21 10:55:22;;;;;;;5.80;1.80;;;;;;;24.38;56.87;96191.43;111589;1229;22506;-78
2023/09/21 10:57:53;;;;;;;3.90;1.70;;;;;;;24.46;57.18;96182.25;111572;1244;24233;-78
2023/09/21 11:00:21;;;;;;;3.80;1.50;;;;;;;24.50;56.99;96176.95;111574;1244;22528;-77
2023/09/21 11:02:54;;;;;;;5.90;1.50;;;;;;;24.51;57.01;96175.94;111591;1244;24159;-77
2023/09/21 11:05:25;;;;;;;3.00;1.60;;;;;;;24.56;57.01;96171.95;111576;1244;22496;-78
2023/09/21 11:07:55;;;;;;;3.20;1.30;;;;;;;24.75;56.78;96171.88;111556;1244;25506;-77
2023/09/21 11:10:24;;;;;;;1.50;1.20;;;;;;;24.92;55.58;96167.91;111512;1244;22968;-78
2023/09/21 11:12:52;;;;;;;;;;;;;;;24.97;55.24;96168.26;111584;1244;25371;-77
2023/09/21 11:15:20;;;;;;;1.70;1.10;;;;;;;25.04;54.71;96158.84;111559;1244;22503;-76
2023/09/21 11:17:49;;;;;;;6.00;2.90;;;;;;;25.11;55.04;96152.67;111560;1244;22542;-76
2023/09/21 11:20:19;;;;;;;2.70;1.80;;;;;;;25.16;54.13;96153.37;111413;1244;23056;-76
2023/09/21 11:22:50;;;;;;;4.00;1.30;;;;;;;25.15;53.99;96148.95;111158;1244;23857;-76
2023/09/21 11:25:22;;;;;;;3.30;1.30;;;;;;;25.22;54.13;96147.27;112462;1244;23723;-76
2023/09/21 11:27:50;;;;;;;3.10;1.40;;;;;;;25.30;54.08;96142.24;111594;1244;23011;-76
2023/09/21 11:30:19;;;;;;;2.80;1.70;;;;;;;25.42;55.07;96138.77;111609;1244;22527;-75
2023/09/21 11:32:50;;;;;;;2.80;1.20;;;;;;;25.54;54.75;96133.60;111474;1244;25529;-76
2023/09/21 11:35:20;;;;;;;2.90;1.40;;;;;;;25.63;54.42;96132.83;111457;1244;22506;-76
2023/09/21 11:37:51;;;;;;;1.70;1.20;;;;;;;25.65;53.96;96135.08;111497;1244;22503;-76
2023/09/21 11:40:21;;;;;;;2.70;1.30;;;;;;;25.55;53.93;96129.33;111468;1244;26919;-76